Gilbertsville, New York
Current Conditions -  °F | °C
As of 4:53 PM on Monday 22 Dec 2014 (Local Time) from KBGM Reporting Station
Overcast Overcast  
Wind Chill: 25°   Ceiling: 2200
Heat Index: 34°   Visibility: 10mi
Dew Point: 28°   Wind: 12mph
Humidity: 79%   Direction: 150°SSE
Pressure: 30.14"   Gusts: NA
Location:  42.47°N, 75.33°W
Report Text: KBGM 222153Z 15010KT 10SM OVC022 01/M02 A3014 RMK AO2 SLP225 T00111022
Loading
Personal Weather Stations






























Interactive Weather Map New forecast layout! Learn more

10-Day Weather Forecast

Advertisements
Track Severe Weather on mobile